sensor_id;sensor_type;location;lat;lon;timestamp;P1;durP1;ratioP1;P2;durP2;ratioP2
11877;SDS011;5998;42.676;23.268;2023-05-29T00:01:48;7.67;;;4.20;;
11877;SDS011;5998;42.676;23.268;2023-05-29T00:04:14;5.47;;;4.40;;
11877;SDS011;5998;42.676;23.268;2023-05-29T00:06:41;5.80;;;4.37;;
11877;SDS011;5998;42.676;23.268;2023-05-29T00:09:07;5.80;;;4.17;;
11877;SDS011;5998;42.676;23.268;2023-05-29T00:11:34;5.03;;;4.53;;
11877;SDS011;5998;42.676;23.268;2023-05-29T00:14:00;8.70;;;4.63;;
11877;SDS011;5998;42.676;23.268;2023-05-29T00:16:27;4.57;;;3.87;;
11877;SDS011;5998;42.676;23.268;2023-05-29T00:18:56;4.50;;;4.10;;
11877;SDS011;5998;42.676;23.268;2023-05-29T00:21:23;5.70;;;4.40;;
11877;SDS011;5998;42.676;23.268;2023-05-29T00:23:49;6.20;;;4.37;;
11877;SDS011;5998;42.676;23.268;2023-05-29T00:26:16;8.40;;;4.80;;
11877;SDS011;5998;42.676;23.268;2023-05-29T00:28:42;6.33;;;4.57;;
11877;SDS011;5998;42.676;23.268;2023-05-29T00:31:08;4.73;;;4.33;;
11877;SDS011;5998;42.676;23.268;2023-05-29T00:33:36;5.67;;;4.40;;
11877;SDS011;5998;42.676;23.268;2023-05-29T00:36:04;5.13;;;4.53;;
11877;SDS011;5998;42.676;23.268;2023-05-29T00:38:31;6.10;;;4.67;;
11877;SDS011;5998;42.676;23.268;2023-05-29T00:40:58;9.13;;;4.47;;
11877;SDS011;5998;42.676;23.268;2023-05-29T00:43:24;5.90;;;4.53;;
11877;SDS011;5998;42.676;23.268;2023-05-29T00:45:51;5.10;;;4.43;;
11877;SDS011;5998;42.676;23.268;2023-05-29T00:48:17;4.77;;;4.23;;
11877;SDS011;5998;42.676;23.268;2023-05-29T00:50:44;7.27;;;4.70;;
11877;SDS011;5998;42.676;23.268;2023-05-29T00:53:12;6.27;;;4.60;;
11877;SDS011;5998;42.676;23.268;2023-05-29T00:55:39;5.47;;;4.63;;
11877;SDS011;5998;42.676;23.268;2023-05-29T00:58:05;6.57;;;4.53;;
11877;SDS011;5998;42.676;23.268;2023-05-29T01:00:32;4.80;;;4.40;;
11877;SDS011;5998;42.676;23.268;2023-05-29T01:03:00;4.60;;;4.20;;
11877;SDS011;5998;42.676;23.268;2023-05-29T01:05:29;5.27;;;4.77;;
11877;SDS011;5998;42.676;23.268;2023-05-29T01:07:57;8.30;;;4.77;;
11877;SDS011;5998;42.676;23.268;2023-05-29T01:10:25;7.87;;;4.73;;
11877;SDS011;5998;42.676;23.268;2023-05-29T01:12:54;5.90;;;4.90;;
11877;SDS011;5998;42.676;23.268;2023-05-29T01:15:25;5.57;;;5.07;;
11877;SDS011;5998;42.676;23.268;2023-05-29T01:18:00;8.43;;;4.83;;
11877;SDS011;5998;42.676;23.268;2023-05-29T01:20:31;6.93;;;5.40;;
11877;SDS011;5998;42.676;23.268;2023-05-29T01:23:07;11.10;;;4.70;;
11877;SDS011;5998;42.676;23.268;2023-05-29T01:25:46;5.97;;;4.60;;
11877;SDS011;5998;42.676;23.268;2023-05-29T01:28:20;5.43;;;4.70;;
11877;SDS011;5998;42.676;23.268;2023-05-29T01:30:46;4.90;;;4.43;;
11877;SDS011;5998;42.676;23.268;2023-05-29T01:33:13;5.83;;;4.63;;
11877;SDS011;5998;42.676;23.268;2023-05-29T01:35:39;6.43;;;4.30;;
11877;SDS011;5998;42.676;23.268;2023-05-29T01:38:06;6.50;;;4.90;;
11877;SDS011;5998;42.676;23.268;2023-05-29T01:40:32;6.83;;;4.33;;
11877;SDS011;5998;42.676;23.268;2023-05-29T01:42:59;6.13;;;4.70;;
11877;SDS011;5998;42.676;23.268;2023-05-29T01:45:27;9.67;;;4.47;;
11877;SDS011;5998;42.676;23.268;2023-05-29T01:47:54;6.40;;;4.67;;
11877;SDS011;5998;42.676;23.268;2023-05-29T01:50:20;6.53;;;5.00;;
11877;SDS011;5998;42.676;23.268;2023-05-29T01:52:49;6.57;;;5.27;;
11877;SDS011;5998;42.676;23.268;2023-05-29T01:55:16;5.67;;;5.07;;
11877;SDS011;5998;42.676;23.268;2023-05-29T01:57:43;6.17;;;4.90;;
11877;SDS011;5998;42.676;23.268;2023-05-29T02:00:10;6.13;;;5.03;;
11877;SDS011;5998;42.676;23.268;2023-05-29T02:02:38;5.40;;;4.90;;
11877;SDS011;5998;42.676;23.268;2023-05-29T02:05:05;5.97;;;5.47;;
11877;SDS011;5998;42.676;23.268;2023-05-29T02:07:32;5.73;;;4.80;;
11877;SDS011;5998;42.676;23.268;2023-05-29T02:09:59;8.13;;;5.40;;
11877;SDS011;5998;42.676;23.268;2023-05-29T02:12:25;5.50;;;5.00;;
11877;SDS011;5998;42.676;23.268;2023-05-29T02:14:53;7.63;;;5.20;;
11877;SDS011;5998;42.676;23.268;2023-05-29T02:17:19;7.57;;;5.37;;
11877;SDS011;5998;42.676;23.268;2023-05-29T02:19:47;6.40;;;5.73;;
11877;SDS011;5998;42.676;23.268;2023-05-29T02:22:14;6.47;;;4.97;;
11877;SDS011;5998;42.676;23.268;2023-05-29T02:24:40;6.43;;;5.27;;
11877;SDS011;5998;42.676;23.268;2023-05-29T02:27:07;6.83;;;5.40;;
11877;SDS011;5998;42.676;23.268;2023-05-29T02:29:34;5.97;;;4.90;;
11877;SDS011;5998;42.676;23.268;2023-05-29T02:32:00;8.23;;;5.60;;
11877;SDS011;5998;42.676;23.268;2023-05-29T02:34:27;10.20;;;5.80;;
11877;SDS011;5998;42.676;23.268;2023-05-29T02:36:55;8.83;;;5.30;;
11877;SDS011;5998;42.676;23.268;2023-05-29T02:39:22;6.13;;;4.97;;
11877;SDS011;5998;42.676;23.268;2023-05-29T02:41:48;6.17;;;5.57;;
11877;SDS011;5998;42.676;23.268;2023-05-29T02:44:14;7.93;;;5.70;;
11877;SDS011;5998;42.676;23.268;2023-05-29T02:46:41;7.00;;;5.20;;
11877;SDS011;5998;42.676;23.268;2023-05-29T02:49:08;7.20;;;5.27;;
11877;SDS011;5998;42.676;23.268;2023-05-29T02:51:34;7.57;;;5.00;;
11877;SDS011;5998;42.676;23.268;2023-05-29T02:54:02;7.10;;;5.73;;
11877;SDS011;5998;42.676;23.268;2023-05-29T02:56:28;6.23;;;5.50;;
11877;SDS011;5998;42.676;23.268;2023-05-29T02:58:55;6.97;;;5.57;;
11877;SDS011;5998;42.676;23.268;2023-05-29T03:01:21;8.27;;;5.97;;
11877;SDS011;5998;42.676;23.268;2023-05-29T03:03:48;6.40;;;5.80;;
11877;SDS011;5998;42.676;23.268;2023-05-29T03:06:14;7.80;;;5.63;;
11877;SDS011;5998;42.676;23.268;2023-05-29T03:08:42;10.00;;;5.83;;
11877;SDS011;5998;42.676;23.268;2023-05-29T03:11:11;6.80;;;6.10;;
11877;SDS011;5998;42.676;23.268;2023-05-29T03:13:38;7.10;;;5.70;;
11877;SDS011;5998;42.676;23.268;2023-05-29T03:16:05;6.50;;;5.70;;
11877;SDS011;5998;42.676;23.268;2023-05-29T03:18:33;5.87;;;5.37;;
11877;SDS011;5998;42.676;23.268;2023-05-29T03:20:59;8.37;;;5.93;;
11877;SDS011;5998;42.676;23.268;2023-05-29T03:23:26;7.10;;;5.33;;
11877;SDS011;5998;42.676;23.268;2023-05-29T03:25:53;7.03;;;5.33;;
11877;SDS011;5998;42.676;23.268;2023-05-29T03:28:20;9.07;;;6.03;;
11877;SDS011;5998;42.676;23.268;2023-05-29T03:30:47;6.70;;;6.00;;
11877;SDS011;5998;42.676;23.268;2023-05-29T03:33:13;6.77;;;6.17;;
11877;SDS011;5998;42.676;23.268;2023-05-29T03:35:40;8.03;;;6.83;;
11877;SDS011;5998;42.676;23.268;2023-05-29T03:38:06;7.00;;;6.10;;
11877;SDS011;5998;42.676;23.268;2023-05-29T03:40:33;7.60;;;6.20;;
11877;SDS011;5998;42.676;23.268;2023-05-29T03:42:59;7.93;;;6.93;;
11877;SDS011;5998;42.676;23.268;2023-05-29T03:45:27;11.37;;;8.70;;
11877;SDS011;5998;42.676;23.268;2023-05-29T03:47:54;12.93;;;8.37;;
11877;SDS011;5998;42.676;23.268;2023-05-29T03:50:20;13.87;;;7.77;;
11877;SDS011;5998;42.676;23.268;2023-05-29T03:52:47;11.83;;;7.83;;
11877;SDS011;5998;42.676;23.268;2023-05-29T03:55:13;13.80;;;9.23;;
11877;SDS011;5998;42.676;23.268;2023-05-29T03:57:40;17.57;;;12.67;;
11877;SDS011;5998;42.676;23.268;2023-05-29T04:00:07;10.90;;;7.17;;
11877;SDS011;5998;42.676;23.268;2023-05-29T04:02:36;10.37;;;7.37;;
11877;SDS011;5998;42.676;23.268;2023-05-29T04:05:03;15.57;;;7.30;;
11877;SDS011;5998;42.676;23.268;2023-05-29T04:07:30;7.90;;;7.10;;
11877;SDS011;5998;42.676;23.268;2023-05-29T04:09:56;12.80;;;6.90;;
11877;SDS011;5998;42.676;23.268;2023-05-29T04:12:22;14.03;;;7.80;;
11877;SDS011;5998;42.676;23.268;2023-05-29T04:14:49;12.87;;;11.07;;
11877;SDS011;5998;42.676;23.268;2023-05-29T04:17:15;8.40;;;7.20;;
11877;SDS011;5998;42.676;23.268;2023-05-29T04:19:43;10.03;;;7.33;;
11877;SDS011;5998;42.676;23.268;2023-05-29T04:22:10;9.97;;;7.50;;
11877;SDS011;5998;42.676;23.268;2023-05-29T04:24:36;13.27;;;7.33;;
11877;SDS011;5998;42.676;23.268;2023-05-29T04:27:02;11.77;;;8.03;;
11877;SDS011;5998;42.676;23.268;2023-05-29T04:29:29;11.30;;;7.67;;
11877;SDS011;5998;42.676;23.268;2023-05-29T04:31:56;16.00;;;7.93;;
11877;SDS011;5998;42.676;23.268;2023-05-29T04:34:23;13.27;;;8.73;;
11877;SDS011;5998;42.676;23.268;2023-05-29T04:36:50;16.40;;;9.07;;
11877;SDS011;5998;42.676;23.268;2023-05-29T04:39:17;13.73;;;8.57;;
11877;SDS011;5998;42.676;23.268;2023-05-29T04:41:43;14.57;;;9.27;;
11877;SDS011;5998;42.676;23.268;2023-05-29T04:44:10;14.93;;;10.60;;
11877;SDS011;5998;42.676;23.268;2023-05-29T04:46:36;22.37;;;12.17;;
11877;SDS011;5998;42.676;23.268;2023-05-29T04:49:03;14.33;;;9.37;;
11877;SDS011;5998;42.676;23.268;2023-05-29T04:51:29;14.80;;;9.90;;
11877;SDS011;5998;42.676;23.268;2023-05-29T04:53:57;16.27;;;9.23;;
11877;SDS011;5998;42.676;23.268;2023-05-29T04:56:24;16.20;;;10.03;;
11877;SDS011;5998;42.676;23.268;2023-05-29T04:58:51;19.10;;;11.03;;
11877;SDS011;5998;42.676;23.268;2023-05-29T05:01:18;23.17;;;13.03;;
11877;SDS011;5998;42.676;23.268;2023-05-29T05:03:45;16.30;;;11.83;;
11877;SDS011;5998;42.676;23.268;2023-05-29T05:06:11;21.27;;;13.33;;
11877;SDS011;5998;42.676;23.268;2023-05-29T05:08:38;16.00;;;11.80;;
11877;SDS011;5998;42.676;23.268;2023-05-29T05:11:05;16.23;;;11.83;;
11877;SDS011;5998;42.676;23.268;2023-05-29T05:13:32;16.43;;;11.77;;
11877;SDS011;5998;42.676;23.268;2023-05-29T05:15:59;23.70;;;12.20;;
11877;SDS011;5998;42.676;23.268;2023-05-29T05:18:25;18.93;;;12.10;;
11877;SDS011;5998;42.676;23.268;2023-05-29T05:20:52;19.50;;;12.20;;
11877;SDS011;5998;42.676;23.268;2023-05-29T05:23:18;17.97;;;11.57;;
11877;SDS011;5998;42.676;23.268;2023-05-29T05:25:45;18.00;;;12.33;;
11877;SDS011;5998;42.676;23.268;2023-05-29T05:28:13;19.80;;;12.20;;
11877;SDS011;5998;42.676;23.268;2023-05-29T05:30:39;19.83;;;11.90;;
11877;SDS011;5998;42.676;23.268;2023-05-29T05:33:06;19.53;;;11.33;;
11877;SDS011;5998;42.676;23.268;2023-05-29T05:35:32;21.47;;;10.17;;
11877;SDS011;5998;42.676;23.268;2023-05-29T05:37:59;22.27;;;11.90;;
11877;SDS011;5998;42.676;23.268;2023-05-29T05:40:25;19.13;;;11.83;;
11877;SDS011;5998;42.676;23.268;2023-05-29T05:42:52;18.80;;;12.03;;
11877;SDS011;5998;42.676;23.268;2023-05-29T05:45:20;17.77;;;11.03;;
11877;SDS011;5998;42.676;23.268;2023-05-29T05:47:46;16.13;;;10.33;;
11877;SDS011;5998;42.676;23.268;2023-05-29T05:50:13;20.50;;;11.07;;
11877;SDS011;5998;42.676;23.268;2023-05-29T05:52:39;16.27;;;10.57;;
11877;SDS011;5998;42.676;23.268;2023-05-29T05:55:06;15.57;;;9.60;;
11877;SDS011;5998;42.676;23.268;2023-05-29T05:57:32;14.53;;;7.67;;
11877;SDS011;5998;42.676;23.268;2023-05-29T06:00:00;11.60;;;8.77;;
11877;SDS011;5998;42.676;23.268;2023-05-29T06:02:32;14.20;;;7.87;;
11877;SDS011;5998;42.676;23.268;2023-05-29T06:04:59;9.30;;;7.13;;
11877;SDS011;5998;42.676;23.268;2023-05-29T06:07:25;10.57;;;6.73;;
11877;SDS011;5998;42.676;23.268;2023-05-29T06:09:51;8.80;;;6.93;;
11877;SDS011;5998;42.676;23.268;2023-05-29T06:12:18;9.93;;;6.17;;
11877;SDS011;5998;42.676;23.268;2023-05-29T06:14:44;7.27;;;5.87;;
11877;SDS011;5998;42.676;23.268;2023-05-29T06:17:11;8.63;;;4.80;;
11877;SDS011;5998;42.676;23.268;2023-05-29T06:19:39;5.50;;;3.80;;
11877;SDS011;5998;42.676;23.268;2023-05-29T06:22:08;6.23;;;4.47;;
11877;SDS011;5998;42.676;23.268;2023-05-29T06:24:35;5.67;;;5.10;;
11877;SDS011;5998;42.676;23.268;2023-05-29T06:27:01;10.77;;;6.77;;
11877;SDS011;5998;42.676;23.268;2023-05-29T06:29:28;9.43;;;6.47;;
11877;SDS011;5998;42.676;23.268;2023-05-29T06:31:54;9.53;;;5.37;;
11877;SDS011;5998;42.676;23.268;2023-05-29T06:34:21;10.30;;;4.60;;
11877;SDS011;5998;42.676;23.268;2023-05-29T06:36:48;7.50;;;5.27;;
11877;SDS011;5998;42.676;23.268;2023-05-29T06:39:15;6.67;;;4.93;;
11877;SDS011;5998;42.676;23.268;2023-05-29T06:41:43;8.27;;;4.97;;
11877;SDS011;5998;42.676;23.268;2023-05-29T06:44:09;7.27;;;3.90;;
11877;SDS011;5998;42.676;23.268;2023-05-29T06:46:36;3.20;;;2.90;;
11877;SDS011;5998;42.676;23.268;2023-05-29T06:49:02;6.00;;;3.30;;
11877;SDS011;5998;42.676;23.268;2023-05-29T06:51:29;3.50;;;3.20;;
11877;SDS011;5998;42.676;23.268;2023-05-29T06:53:57;7.07;;;3.43;;
11877;SDS011;5998;42.676;23.268;2023-05-29T06:56:23;5.47;;;3.60;;
11877;SDS011;5998;42.676;23.268;2023-05-29T06:58:51;5.77;;;3.77;;
11877;SDS011;5998;42.676;23.268;2023-05-29T07:01:17;3.50;;;3.20;;
11877;SDS011;5998;42.676;23.268;2023-05-29T07:03:44;4.10;;;3.17;;
11877;SDS011;5998;42.676;23.268;2023-05-29T07:06:10;5.93;;;3.67;;
11877;SDS011;5998;42.676;23.268;2023-05-29T07:08:36;4.20;;;2.40;;
11877;SDS011;5998;42.676;23.268;2023-05-29T07:11:04;3.17;;;2.53;;
11877;SDS011;5998;42.676;23.268;2023-05-29T07:13:31;5.00;;;3.00;;
11877;SDS011;5998;42.676;23.268;2023-05-29T07:15:57;6.70;;;2.80;;
11877;SDS011;5998;42.676;23.268;2023-05-29T07:18:23;3.40;;;2.57;;
11877;SDS011;5998;42.676;23.268;2023-05-29T07:20:50;3.87;;;2.20;;
11877;SDS011;5998;42.676;23.268;2023-05-29T07:23:16;2.80;;;2.20;;
11877;SDS011;5998;42.676;23.268;2023-05-29T07:25:43;2.97;;;2.67;;
11877;SDS011;5998;42.676;23.268;2023-05-29T07:28:11;5.27;;;2.90;;
11877;SDS011;5998;42.676;23.268;2023-05-29T07:30:37;4.93;;;2.40;;
11877;SDS011;5998;42.676;23.268;2023-05-29T07:33:04;4.10;;;2.70;;
11877;SDS011;5998;42.676;23.268;2023-05-29T07:35:30;2.60;;;2.33;;
11877;SDS011;5998;42.676;23.268;2023-05-29T07:37:58;4.70;;;2.20;;
11877;SDS011;5998;42.676;23.268;2023-05-29T07:40:24;2.90;;;2.60;;
11877;SDS011;5998;42.676;23.268;2023-05-29T07:42:51;5.67;;;2.73;;
11877;SDS011;5998;42.676;23.268;2023-05-29T07:45:19;5.23;;;2.60;;
11877;SDS011;5998;42.676;23.268;2023-05-29T07:47:45;6.97;;;2.50;;
11877;SDS011;5998;42.676;23.268;2023-05-29T07:50:13;4.93;;;2.47;;
11877;SDS011;5998;42.676;23.268;2023-05-29T07:52:40;3.30;;;2.40;;
11877;SDS011;5998;42.676;23.268;2023-05-29T07:55:08;7.27;;;3.20;;
11877;SDS011;5998;42.676;23.268;2023-05-29T07:57:34;6.27;;;3.03;;
11877;SDS011;5998;42.676;23.268;2023-05-29T08:00:01;5.57;;;2.60;;
11877;SDS011;5998;42.676;23.268;2023-05-29T08:02:34;4.13;;;2.60;;
11877;SDS011;5998;42.676;23.268;2023-05-29T08:05:01;5.83;;;2.50;;
11877;SDS011;5998;42.676;23.268;2023-05-29T08:07:28;2.60;;;2.40;;
11877;SDS011;5998;42.676;23.268;2023-05-29T08:09:54;3.90;;;2.87;;
11877;SDS011;5998;42.676;23.268;2023-05-29T08:12:21;7.37;;;3.40;;
11877;SDS011;5998;42.676;23.268;2023-05-29T08:14:47;3.07;;;2.63;;
11877;SDS011;5998;42.676;23.268;2023-05-29T08:17:15;4.33;;;2.77;;
11877;SDS011;5998;42.676;23.268;2023-05-29T08:19:42;2.50;;;2.30;;
11877;SDS011;5998;42.676;23.268;2023-05-29T08:22:11;9.23;;;3.47;;
11877;SDS011;5998;42.676;23.268;2023-05-29T08:24:38;3.83;;;2.70;;
11877;SDS011;5998;42.676;23.268;2023-05-29T08:27:04;8.97;;;2.93;;
11877;SDS011;5998;42.676;23.268;2023-05-29T08:29:31;16.20;;;4.10;;
11877;SDS011;5998;42.676;23.268;2023-05-29T08:31:57;4.40;;;2.97;;
11877;SDS011;5998;42.676;23.268;2023-05-29T08:34:23;3.17;;;2.30;;
11877;SDS011;5998;42.676;23.268;2023-05-29T08:36:51;2.83;;;2.53;;
11877;SDS011;5998;42.676;23.268;2023-05-29T08:39:20;3.40;;;2.60;;
11877;SDS011;5998;42.676;23.268;2023-05-29T08:41:47;2.83;;;2.50;;
11877;SDS011;5998;42.676;23.268;2023-05-29T08:44:18;4.00;;;2.57;;
11877;SDS011;5998;42.676;23.268;2023-05-29T08:46:46;4.10;;;2.63;;
11877;SDS011;5998;42.676;23.268;2023-05-29T08:49:13;5.23;;;2.50;;
11877;SDS011;5998;42.676;23.268;2023-05-29T08:51:42;5.77;;;2.63;;
11877;SDS011;5998;42.676;23.268;2023-05-29T08:54:16;5.23;;;3.47;;
11877;SDS011;5998;42.676;23.268;2023-05-29T08:56:43;4.63;;;3.13;;
11877;SDS011;5998;42.676;23.268;2023-05-29T08:59:09;5.20;;;2.90;;
11877;SDS011;5998;42.676;23.268;2023-05-29T09:01:37;4.93;;;3.20;;
11877;SDS011;5998;42.676;23.268;2023-05-29T09:04:04;9.70;;;3.60;;
11877;SDS011;5998;42.676;23.268;2023-05-29T09:06:30;6.20;;;2.80;;
11877;SDS011;5998;42.676;23.268;2023-05-29T09:08:57;4.03;;;2.73;;
11877;SDS011;5998;42.676;23.268;2023-05-29T09:11:25;3.30;;;2.70;;
11877;SDS011;5998;42.676;23.268;2023-05-29T09:13:51;10.97;;;4.90;;
11877;SDS011;5998;42.676;23.268;2023-05-29T09:16:18;3.37;;;2.50;;
11877;SDS011;5998;42.676;23.268;2023-05-29T09:18:45;2.97;;;2.70;;
11877;SDS011;5998;42.676;23.268;2023-05-29T09:21:16;7.57;;;2.80;;
11877;SDS011;5998;42.676;23.268;2023-05-29T09:23:51;3.27;;;2.50;;
11877;SDS011;5998;42.676;23.268;2023-05-29T09:26:17;3.20;;;2.80;;
11877;SDS011;5998;42.676;23.268;2023-05-29T09:28:48;2.90;;;2.70;;
11877;SDS011;5998;42.676;23.268;2023-05-29T09:31:15;3.80;;;3.00;;
11877;SDS011;5998;42.676;23.268;2023-05-29T09:33:46;3.93;;;3.03;;
11877;SDS011;5998;42.676;23.268;2023-05-29T09:36:18;9.97;;;4.20;;
11877;SDS011;5998;42.676;23.268;2023-05-29T09:38:45;5.93;;;3.27;;
11877;SDS011;5998;42.676;23.268;2023-05-29T09:41:12;3.00;;;2.70;;
11877;SDS011;5998;42.676;23.268;2023-05-29T09:43:38;4.87;;;2.80;;
11877;SDS011;5998;42.676;23.268;2023-05-29T09:46:07;3.00;;;2.80;;
11877;SDS011;5998;42.676;23.268;2023-05-29T09:48:34;5.00;;;3.27;;
11877;SDS011;5998;42.676;23.268;2023-05-29T09:51:02;4.50;;;3.30;;
11877;SDS011;5998;42.676;23.268;2023-05-29T09:53:28;4.30;;;3.50;;
11877;SDS011;5998;42.676;23.268;2023-05-29T09:55:56;10.03;;;3.60;;
11877;SDS011;5998;42.676;23.268;2023-05-29T09:58:23;11.13;;;3.93;;
11877;SDS011;5998;42.676;23.268;2023-05-29T10:00:51;5.70;;;3.50;;
11877;SDS011;5998;42.676;23.268;2023-05-29T10:03:19;4.00;;;3.00;;
11877;SDS011;5998;42.676;23.268;2023-05-29T10:05:46;4.03;;;2.70;;
11877;SDS011;5998;42.676;23.268;2023-05-29T10:08:14;4.03;;;3.00;;
11877;SDS011;5998;42.676;23.268;2023-05-29T10:10:42;5.77;;;3.30;;
11877;SDS011;5998;42.676;23.268;2023-05-29T10:13:09;6.93;;;3.70;;
11877;SDS011;5998;42.676;23.268;2023-05-29T10:15:37;20.80;;;4.97;;
11877;SDS011;5998;42.676;23.268;2023-05-29T10:18:04;3.60;;;3.30;;
11877;SDS011;5998;42.676;23.268;2023-05-29T10:20:34;5.93;;;3.23;;
11877;SDS011;5998;42.676;23.268;2023-05-29T10:23:01;5.07;;;3.03;;
11877;SDS011;5998;42.676;23.268;2023-05-29T10:25:29;3.40;;;3.10;;
11877;SDS011;5998;42.676;23.268;2023-05-29T10:27:56;5.80;;;3.00;;
11877;SDS011;5998;42.676;23.268;2023-05-29T10:30:25;5.47;;;3.13;;
11877;SDS011;5998;42.676;23.268;2023-05-29T10:33:00;4.83;;;3.70;;
11877;SDS011;5998;42.676;23.268;2023-05-29T10:35:31;9.97;;;4.13;;
11877;SDS011;5998;42.676;23.268;2023-05-29T10:38:02;6.33;;;3.37;;
11877;SDS011;5998;42.676;23.268;2023-05-29T10:40:28;5.00;;;4.07;;
11877;SDS011;5998;42.676;23.268;2023-05-29T10:42:55;14.17;;;3.93;;
11877;SDS011;5998;42.676;23.268;2023-05-29T10:50:56;7.97;;;3.50;;
11877;SDS011;5998;42.676;23.268;2023-05-29T10:53:24;4.20;;;2.90;;
11877;SDS011;5998;42.676;23.268;2023-05-29T10:55:52;4.50;;;2.90;;
11877;SDS011;5998;42.676;23.268;2023-05-29T10:58:19;18.77;;;4.07;;
11877;SDS011;5998;42.676;23.268;2023-05-29T11:00:47;4.90;;;3.03;;
11877;SDS011;5998;42.676;23.268;2023-05-29T11:03:14;4.20;;;3.13;;
11877;SDS011;5998;42.676;23.268;2023-05-29T11:05:55;25.80;;;5.60;;
11877;SDS011;5998;42.676;23.268;2023-05-29T11:08:29;14.53;;;3.97;;
11877;SDS011;5998;42.676;23.268;2023-05-29T11:10:58;15.40;;;4.47;;
11877;SDS011;5998;42.676;23.268;2023-05-29T11:13:25;23.47;;;5.70;;
11877;SDS011;5998;42.676;23.268;2023-05-29T11:18:47;4.97;;;3.10;;
11877;SDS011;5998;42.676;23.268;2023-05-29T11:21:27;3.33;;;3.03;;
11877;SDS011;5998;42.676;23.268;2023-05-29T11:23:58;7.93;;;3.30;;
11877;SDS011;5998;42.676;23.268;2023-05-29T11:26:28;5.60;;;3.10;;
11877;SDS011;5998;42.676;23.268;2023-05-29T11:28:56;4.97;;;3.03;;
11877;SDS011;5998;42.676;23.268;2023-05-29T11:31:23;4.03;;;2.80;;
11877;SDS011;5998;42.676;23.268;2023-05-29T11:33:50;3.30;;;3.00;;
11877;SDS011;5998;42.676;23.268;2023-05-29T11:36:18;4.03;;;2.90;;
11877;SDS011;5998;42.676;23.268;2023-05-29T11:38:45;3.93;;;3.23;;
11877;SDS011;5998;42.676;23.268;2023-05-29T11:41:13;4.83;;;3.20;;
11877;SDS011;5998;42.676;23.268;2023-05-29T11:43:42;4.30;;;3.47;;
11877;SDS011;5998;42.676;23.268;2023-05-29T11:46:16;5.23;;;3.40;;
11877;SDS011;5998;42.676;23.268;2023-05-29T11:48:46;3.30;;;3.00;;
11877;SDS011;5998;42.676;23.268;2023-05-29T11:51:13;3.60;;;3.20;;
11877;SDS011;5998;42.676;23.268;2023-05-29T11:53:39;3.37;;;3.10;;
11877;SDS011;5998;42.676;23.268;2023-05-29T11:56:07;3.87;;;3.40;;
11877;SDS011;5998;42.676;23.268;2023-05-29T11:58:35;3.53;;;2.80;;
11877;SDS011;5998;42.676;23.268;2023-05-29T12:01:02;3.90;;;3.10;;
11877;SDS011;5998;42.676;23.268;2023-05-29T12:03:28;4.10;;;3.00;;
11877;SDS011;5998;42.676;23.268;2023-05-29T12:05:55;3.27;;;2.97;;
11877;SDS011;5998;42.676;23.268;2023-05-29T12:08:22;5.63;;;3.13;;
11877;SDS011;5998;42.676;23.268;2023-05-29T12:10:49;3.70;;;3.40;;
11877;SDS011;5998;42.676;23.268;2023-05-29T12:13:18;5.00;;;3.60;;
11877;SDS011;5998;42.676;23.268;2023-05-29T12:15:46;6.97;;;3.20;;
11877;SDS011;5998;42.676;23.268;2023-05-29T12:18:13;5.47;;;3.47;;
11877;SDS011;5998;42.676;23.268;2023-05-29T12:20:40;5.30;;;3.33;;
11877;SDS011;5998;42.676;23.268;2023-05-29T12:23:07;7.87;;;3.80;;
11877;SDS011;5998;42.676;23.268;2023-05-29T12:25:34;8.47;;;4.03;;
11877;SDS011;5998;42.676;23.268;2023-05-29T12:28:02;12.43;;;4.90;;
11877;SDS011;5998;42.676;23.268;2023-05-29T12:30:28;16.53;;;4.73;;
11877;SDS011;5998;42.676;23.268;2023-05-29T12:32:56;10.93;;;4.40;;
11877;SDS011;5998;42.676;23.268;2023-05-29T12:35:24;9.37;;;4.40;;
11877;SDS011;5998;42.676;23.268;2023-05-29T12:37:53;9.77;;;4.53;;
11877;SDS011;5998;42.676;23.268;2023-05-29T12:40:21;6.50;;;4.50;;
11877;SDS011;5998;42.676;23.268;2023-05-29T12:42:48;9.27;;;4.90;;
11877;SDS011;5998;42.676;23.268;2023-05-29T12:45:15;6.73;;;5.30;;
11877;SDS011;5998;42.676;23.268;2023-05-29T12:47:50;9.60;;;5.57;;
11877;SDS011;5998;42.676;23.268;2023-05-29T12:50:22;5.07;;;4.40;;
11877;SDS011;5998;42.676;23.268;2023-05-29T12:52:57;7.50;;;4.93;;
11877;SDS011;5998;42.676;23.268;2023-05-29T12:55:24;6.50;;;4.37;;
11877;SDS011;5998;42.676;23.268;2023-05-29T12:57:50;5.90;;;4.97;;
11877;SDS011;5998;42.676;23.268;2023-05-29T13:00:17;12.73;;;5.87;;
11877;SDS011;5998;42.676;23.268;2023-05-29T13:02:44;14.30;;;6.83;;
11877;SDS011;5998;42.676;23.268;2023-05-29T13:05:10;7.23;;;5.83;;
11877;SDS011;5998;42.676;23.268;2023-05-29T13:07:38;5.97;;;5.03;;
11877;SDS011;5998;42.676;23.268;2023-05-29T13:10:05;7.90;;;4.70;;
11877;SDS011;5998;42.676;23.268;2023-05-29T13:12:32;5.67;;;5.07;;
11877;SDS011;5998;42.676;23.268;2023-05-29T13:14:58;4.87;;;4.37;;
11877;SDS011;5998;42.676;23.268;2023-05-29T13:17:24;4.87;;;4.47;;
11877;SDS011;5998;42.676;23.268;2023-05-29T13:19:51;7.00;;;5.10;;
11877;SDS011;5998;42.676;23.268;2023-05-29T13:22:17;6.00;;;3.57;;
11877;SDS011;5998;42.676;23.268;2023-05-29T13:24:45;17.17;;;5.03;;
11877;SDS011;5998;42.676;23.268;2023-05-29T13:27:12;7.27;;;3.90;;
11877;SDS011;5998;42.676;23.268;2023-05-29T13:29:41;5.03;;;4.03;;
11877;SDS011;5998;42.676;23.268;2023-05-29T13:32:08;4.10;;;3.80;;
11877;SDS011;5998;42.676;23.268;2023-05-29T13:34:34;4.63;;;4.23;;
11877;SDS011;5998;42.676;23.268;2023-05-29T13:37:01;4.67;;;4.27;;
11877;SDS011;5998;42.676;23.268;2023-05-29T13:39:27;4.37;;;3.80;;
11877;SDS011;5998;42.676;23.268;2023-05-29T13:41:55;4.57;;;4.17;;
11877;SDS011;5998;42.676;23.268;2023-05-29T13:44:21;2.23;;;2.03;;
11877;SDS011;5998;42.676;23.268;2023-05-29T13:46:48;2.80;;;2.40;;
11877;SDS011;5998;42.676;23.268;2023-05-29T13:49:15;4.00;;;2.03;;
11877;SDS011;5998;42.676;23.268;2023-05-29T13:51:42;5.30;;;2.30;;
11877;SDS011;5998;42.676;23.268;2023-05-29T13:54:10;3.77;;;2.33;;
11877;SDS011;5998;42.676;23.268;2023-05-29T13:56:36;2.67;;;1.80;;
11877;SDS011;5998;42.676;23.268;2023-05-29T13:59:04;2.20;;;2.00;;
11877;SDS011;5998;42.676;23.268;2023-05-29T14:01:31;3.73;;;3.40;;
11877;SDS011;5998;42.676;23.268;2023-05-29T14:03:58;4.37;;;3.77;;
11877;SDS011;5998;42.676;23.268;2023-05-29T14:06:24;3.80;;;3.50;;
11877;SDS011;5998;42.676;23.268;2023-05-29T14:08:51;4.63;;;3.87;;
11877;SDS011;5998;42.676;23.268;2023-05-29T14:11:18;3.87;;;3.43;;
11877;SDS011;5998;42.676;23.268;2023-05-29T14:13:44;4.87;;;3.80;;
11877;SDS011;5998;42.676;23.268;2023-05-29T14:16:12;6.33;;;2.77;;
11877;SDS011;5998;42.676;23.268;2023-05-29T14:18:40;3.53;;;2.87;;
11877;SDS011;5998;42.676;23.268;2023-05-29T14:21:07;2.83;;;2.20;;
11877;SDS011;5998;42.676;23.268;2023-05-29T14:23:33;2.27;;;2.03;;
11877;SDS011;5998;42.676;23.268;2023-05-29T14:26:00;3.07;;;1.73;;
11877;SDS011;5998;42.676;23.268;2023-05-29T14:28:27;2.50;;;1.77;;
11877;SDS011;5998;42.676;23.268;2023-05-29T14:30:53;2.90;;;1.80;;
11877;SDS011;5998;42.676;23.268;2023-05-29T14:33:21;3.37;;;1.80;;
11877;SDS011;5998;42.676;23.268;2023-05-29T14:35:47;2.10;;;1.90;;
11877;SDS011;5998;42.676;23.268;2023-05-29T14:38:14;2.23;;;2.00;;
11877;SDS011;5998;42.676;23.268;2023-05-29T14:40:40;3.47;;;2.23;;
11877;SDS011;5998;42.676;23.268;2023-05-29T14:43:07;2.50;;;1.87;;
11877;SDS011;5998;42.676;23.268;2023-05-29T14:45:33;3.13;;;1.77;;
11877;SDS011;5998;42.676;23.268;2023-05-29T14:48:00;3.73;;;1.80;;
11877;SDS011;5998;42.676;23.268;2023-05-29T14:50:28;2.47;;;1.90;;
11877;SDS011;5998;42.676;23.268;2023-05-29T14:52:54;5.83;;;1.90;;